ΕΜΥ, Εθνική Μετεωρολογική Υπηρεσία - Δελτία Καιρού, Προγνώσεις

ΑΕΡΟΝΑΥΤΙΛΙΑ

GREEK AIRPORTS CODES

LGSR 281450Z 34025KT CAVOK 28/19 Q1012=

EUROPEAN AIRPORTS CODES

EHAM 281455Z 18005KT 110V250 CAVOK 22/09 Q1019 NOSIG=